Time;durP1;ratioP1;P1;durP2;ratioP2;P2;SDS_P1;SDS_P2;PMS_P1;PMS_P2;Temp;Humidity;BMP_temperature;BMP_pressure;BME280_temperature;BME280_humidity;BME280_pressure;Samples;Min_cycle;Max_cycle;Signal;HPM_P1;HPM_P2
2021/05/23 10:42:02;;;;;;;43.55;41.33;;;;;;;;;;5090878;28;21119;-70
2021/05/23 10:44:38;;;;;;;52.65;50.47;;;;;;;;;;5090885;28;20221;-71
2021/05/23 10:47:09;;;;;;;53.92;51.58;;;;;;;;;;5090889;28;20194;-71
2021/05/23 10:49:35;;;;;;;59.83;57.08;;;;;;;;;;5090842;28;20163;-71
2021/05/23 10:52:02;;;;;;;64.15;61.47;;;;;;;;;;5090776;28;20213;-71
2021/05/23 10:54:29;;;;;;;68.43;65.53;;;;;;;;;;5090531;28;20163;-71
2021/05/23 10:57:01;;;;;;;64.57;61.85;;;;;;;;;;5090585;28;20168;-71
2021/05/23 10:59:32;;;;;;;60.83;58.28;;;;;;;;;;5090652;28;20175;-71
2021/05/23 11:01:58;;;;;;;59.55;57.05;;;;;;;;;;5090676;28;20640;-71
2021/05/23 11:04:25;;;;;;;61.17;58.60;;;;;;;;;;5090541;28;20208;-71
2021/05/23 11:06:51;;;;;;;66.25;63.40;;;;;;;;;;5089112;28;20657;-71
2021/05/23 11:09:20;;;;;;;64.30;61.53;;;;;;;;;;5090423;28;20544;-71
2021/05/23 11:11:46;;;;;;;66.18;63.33;;;;;;;;;;5090374;28;20213;-71
2021/05/23 11:14:24;;;;;;;65.75;62.97;;;;;;;;;;5090342;28;20178;-71
2021/05/23 11:16:57;;;;;;;64.47;61.72;;;;;;;;;;5089136;28;20279;-71
2021/05/23 11:19:32;;;;;;;71.90;68.75;;;;;;;;;;5090181;28;20282;-71
2021/05/23 11:21:59;;;;;;;62.35;59.75;;;;;;;;;;5090242;28;20212;-71
2021/05/23 11:24:29;;;;;;;62.97;60.33;;;;;;;;;;5090120;28;20242;-71
2021/05/23 11:26:55;;;;;;;66.32;63.50;;;;;;;;;;5090197;28;20182;-71
2021/05/23 11:29:24;;;;;;;73.35;70.22;;;;;;;;;;5090103;28;20171;-71
2021/05/23 11:31:50;;;;;;;56.83;54.50;;;;;;;;;;5090008;28;20181;-71
2021/05/23 11:34:20;;;;;;;64.25;61.55;;;;;;;;;;5089951;28;20172;-71
2021/05/23 11:36:46;;;;;;;55.55;53.25;;;;;;;;;;5089856;28;20164;-71
2021/05/23 11:39:13;;;;;;;57.30;54.83;;;;;;;;;;5089877;28;20226;-72
2021/05/23 11:41:43;;;;;;;61.00;58.33;;;;;;;;;;5089488;28;20231;-71
2021/05/23 11:44:11;;;;;;;56.47;54.15;;;;;;;;;;5089826;28;20573;-71
2021/05/23 11:46:38;;;;;;;64.40;61.67;;;;;;;;;;5089541;28;20191;-71
2021/05/23 11:49:05;;;;;;;64.50;61.75;;;;;;;;;;5089567;28;20200;-71
2021/05/23 11:51:32;;;;;;;66.32;63.40;;;;;;;;;;5084998;28;20176;-72
2021/05/23 11:53:59;;;;;;;66.82;63.97;;;;;;;;;;5075967;28;20176;-71
2021/05/23 11:56:26;;;;;;;57.38;54.88;;;;;;;;;;5075931;28;20230;-72
2021/05/23 11:58:53;;;;;;;62.13;59.53;;;;;;;;;;5075853;28;20179;-71
2021/05/23 12:01:25;;;;;;;63.17;60.50;;;;;;;;;;5075673;28;20242;-71
2021/05/23 12:03:56;;;;;;;61.40;58.83;;;;;;;;;;5075957;28;20161;-71
2021/05/23 12:06:22;;;;;;;57.17;54.70;;;;;;;;;;5075600;28;20491;-71
2021/05/23 12:08:49;;;;;;;63.25;60.53;;;;;;;;;;5075900;28;20176;-71
2021/05/23 12:11:16;;;;;;;64.82;62.03;;;;;;;;;;5074466;28;20204;-72
2021/05/23 12:13:44;;;;;;;59.78;57.20;;;;;;;;;;5075667;28;20175;-72
2021/05/23 12:16:11;;;;;;;57.75;55.35;;;;;;;;;;5075562;28;20165;-71
2021/05/23 12:18:38;;;;;;;55.95;53.65;;;;;;;;;;5074267;28;20637;-71
2021/05/23 12:21:05;;;;;;;54.22;51.95;;;;;;;;;;5075426;28;20196;-71
2021/05/23 12:23:32;;;;;;;57.58;55.17;;;;;;;;;;5074114;28;20618;-71
2021/05/23 12:25:58;;;;;;;56.58;54.25;;;;;;;;;;5075487;28;20649;-71
2021/05/23 12:28:33;;;;;;;57.13;54.63;;;;;;;;;;5075363;28;20164;-71
2021/05/23 12:31:00;;;;;;;65.35;62.58;;;;;;;;;;5075379;28;20241;-71
2021/05/23 12:33:26;;;;;;;65.45;62.70;;;;;;;;;;5075436;28;20252;-71
2021/05/23 12:35:52;;;;;;;68.22;65.35;;;;;;;;;;5075292;28;20221;-71
2021/05/23 12:38:18;;;;;;;71.53;67.93;;;;;;;;;;5075326;28;20506;-71
2021/05/23 12:40:47;;;;;;;77.07;73.22;;;;;;;;;;5074924;28;20306;-71
2021/05/23 12:43:19;;;;;;;75.38;72.15;;;;;;;;;;5074189;28;20504;-71
2021/05/23 12:45:51;;;;;;;76.75;73.45;;;;;;;;;;5075065;28;20618;-71
2021/05/23 12:48:18;;;;;;;85.88;82.18;;;;;;;;;;5073759;28;20191;-71
2021/05/23 12:50:47;;;;;;;85.28;81.57;;;;;;;;;;5074934;28;20165;-71
2021/05/23 12:53:27;;;;;;;70.57;67.57;;;;;;;;;;5074927;28;20626;-71
2021/05/23 12:55:54;;;;;;;81.15;77.63;;;;;;;;;;5074881;28;20168;-71
2021/05/23 12:58:20;;;;;;;81.50;77.82;;;;;;;;;;5074817;28;20168;-70
2021/05/23 13:00:47;;;;;;;87.15;83.28;;;;;;;;;;5074761;28;20207;-70
2021/05/23 13:03:14;;;;;;;86.85;83.10;;;;;;;;;;5074084;28;20184;-70
2021/05/23 13:05:53;;;;;;;87.72;83.95;;;;;;;;;;5074265;28;20239;-71
2021/05/23 13:08:19;;;;;;;83.88;80.07;;;;;;;;;;5074808;28;20160;-71
2021/05/23 13:10:46;;;;;;;82.80;79.25;;;;;;;;;;5074689;28;20173;-71
2021/05/23 13:13:12;;;;;;;84.90;81.25;;;;;;;;;;5074634;28;20168;-71
2021/05/23 13:15:38;;;;;;;75.95;72.65;;;;;;;;;;5074500;28;20174;-71
2021/05/23 13:18:05;;;;;;;66.63;63.72;;;;;;;;;;5073155;28;20176;-71
2021/05/23 13:20:35;;;;;;;62.05;59.42;;;;;;;;;;5074277;28;20224;-70
2021/05/23 13:23:02;;;;;;;54.00;51.80;;;;;;;;;;5074378;28;20648;-71
2021/05/23 13:25:28;;;;;;;65.80;62.95;;;;;;;;;;5074317;28;20248;-71
2021/05/23 13:27:55;;;;;;;62.60;59.95;;;;;;;;;;5074241;28;20169;-71
2021/05/23 13:30:22;;;;;;;57.70;55.20;;;;;;;;;;5074230;28;20252;-71
2021/05/23 13:32:48;;;;;;;58.63;56.17;;;;;;;;;;5074095;28;20187;-71
2021/05/23 13:35:14;;;;;;;62.50;59.88;;;;;;;;;;5074117;28;20559;-71
2021/05/23 13:37:40;;;;;;;60.22;57.67;;;;;;;;;;5074060;28;20172;-72
2021/05/23 13:40:07;;;;;;;65.03;62.30;;;;;;;;;;5073804;28;20281;-72
2021/05/23 13:42:33;;;;;;;75.68;72.40;;;;;;;;;;5074016;28;20567;-71
2021/05/23 13:44:59;;;;;;;72.13;69.07;;;;;;;;;;5074009;28;20168;-71
2021/05/23 13:47:25;;;;;;;68.28;65.35;;;;;;;;;;5072557;28;20633;-71
2021/05/23 13:49:51;;;;;;;68.65;65.72;;;;;;;;;;5073878;28;20207;-71
2021/05/23 13:52:18;;;;;;;74.93;71.70;;;;;;;;;;5072528;28;20186;-71
2021/05/23 13:54:44;;;;;;;74.00;70.82;;;;;;;;;;5073755;28;20160;-71
2021/05/23 13:57:10;;;;;;;76.65;73.38;;;;;;;;;;5073694;28;20206;-71
2021/05/23 13:59:36;;;;;;;89.38;85.40;;;;;;;;;;5073732;28;20195;-71
2021/05/23 14:02:02;;;;;;;85.60;81.90;;;;;;;;;;5073564;28;20184;-71
2021/05/23 14:04:28;;;;;;;111.47;106.57;;;;;;;;;;5072364;28;20183;-71
2021/05/23 14:06:54;;;;;;;118.85;113.60;;;;;;;;;;5073538;28;20196;-71
2021/05/23 14:09:20;;;;;;;100.25;95.90;;;;;;;;;;5073588;28;20570;-71
2021/05/23 14:11:47;;;;;;;126.57;121.03;;;;;;;;;;5073632;28;20164;-71
2021/05/23 14:14:13;;;;;;;91.40;87.47;;;;;;;;;;5072249;28;20191;-71
2021/05/23 14:16:39;;;;;;;106.43;101.72;;;;;;;;;;5073268;28;20172;-71
2021/05/23 14:19:05;;;;;;;98.70;94.40;;;;;;;;;;5073493;28;20500;-71
2021/05/23 14:21:32;;;;;;;100.88;96.47;;;;;;;;;;5073378;28;20235;-71
2021/05/23 14:23:58;;;;;;;101.88;97.45;;;;;;;;;;5073355;28;20168;-71
2021/05/23 14:26:25;;;;;;;141.00;134.70;;;;;;;;;;5073350;28;20164;-71
2021/05/23 14:28:51;;;;;;;90.45;86.55;;;;;;;;;;5073430;28;20369;-71
2021/05/23 14:31:20;;;;;;;128.38;122.70;;;;;;;;;;5073271;28;20176;-71
2021/05/23 14:33:46;;;;;;;129.35;123.65;;;;;;;;;;5073328;28;20164;-72
2021/05/23 14:36:12;;;;;;;106.05;101.43;;;;;;;;;;5073220;28;20168;-71
2021/05/23 14:38:39;;;;;;;107.57;102.88;;;;;;;;;;5073297;28;20198;-71
2021/05/23 14:41:05;;;;;;;102.15;97.63;;;;;;;;;;5073068;28;20228;-71
2021/05/23 14:43:32;;;;;;;103.22;98.72;;;;;;;;;;5073117;28;20179;-71
2021/05/23 14:45:59;;;;;;;87.45;83.60;;;;;;;;;;5073097;28;20255;-71
2021/05/23 14:48:25;;;;;;;81.15;77.55;;;;;;;;;;5073115;28;20168;-71
2021/05/23 14:50:51;;;;;;;78.28;74.93;;;;;;;;;;5073163;28;20177;-71
2021/05/23 14:53:17;;;;;;;79.00;75.60;;;;;;;;;;5073122;28;20656;-71
2021/05/23 14:55:47;;;;;;;78.18;74.78;;;;;;;;;;5071808;28;20168;-71
2021/05/23 14:58:23;;;;;;;74.95;71.75;;;;;;;;;;5073037;28;20197;-71
2021/05/23 15:00:50;;;;;;;76.13;72.85;;;;;;;;;;5072974;28;20199;-71
2021/05/23 15:03:16;;;;;;;95.70;91.53;;;;;;;;;;5073036;28;20169;-71
2021/05/23 15:05:43;;;;;;;101.57;97.18;;;;;;;;;;5072870;28;20183;-71
2021/05/23 15:08:08;;;;;;;105.70;101.10;;;;;;;;;;5073056;28;20179;-71
2021/05/23 15:10:34;;;;;;;113.65;108.68;;;;;;;;;;5072925;28;20169;-71
2021/05/23 15:13:00;;;;;;;106.15;101.45;;;;;;;;;;5072850;28;20646;-71
2021/05/23 15:15:28;;;;;;;117.53;112.28;;;;;;;;;;5072907;28;20172;-71
2021/05/23 15:17:55;;;;;;;116.05;110.97;;;;;;;;;;5072861;28;20195;-71
2021/05/23 15:20:21;;;;;;;118.25;113.05;;;;;;;;;;5072836;28;20172;-71
2021/05/23 15:22:47;;;;;;;120.82;115.53;;;;;;;;;;5072876;28;20165;-71
2021/05/23 15:25:13;;;;;;;111.93;107.03;;;;;;;;;;5072495;28;20526;-71
2021/05/23 15:30:26;;;;;;;96.10;91.95;;;;;;;;;;5076525;28;20653;-71
2021/05/23 15:32:53;;;;;;;92.18;88.22;;;;;;;;;;5076404;28;20289;-71
2021/05/23 15:35:19;;;;;;;83.05;79.47;;;;;;;;;;5076513;28;20171;-71
2021/05/23 15:37:45;;;;;;;87.53;83.72;;;;;;;;;;5076361;28;20203;-72
2021/05/23 15:40:11;;;;;;;76.22;72.97;;;;;;;;;;5076156;28;20254;-71
2021/05/23 15:42:37;;;;;;;76.80;73.45;;;;;;;;;;5076284;28;20212;-71
2021/05/23 15:45:04;;;;;;;87.88;84.05;;;;;;;;;;5076173;28;20199;-71
2021/05/23 15:47:30;;;;;;;88.95;84.95;;;;;;;;;;5076236;28;20196;-71
2021/05/23 15:49:56;;;;;;;94.95;90.80;;;;;;;;;;5076104;28;20172;-71
2021/05/23 15:52:23;;;;;;;98.15;93.80;;;;;;;;;;5076099;28;20555;-70
2021/05/23 15:54:55;;;;;;;90.38;86.45;;;;;;;;;;5076091;28;20214;-70
2021/05/23 15:57:21;;;;;;;101.00;96.43;;;;;;;;;;5076049;28;20157;-71
2021/05/23 15:59:47;;;;;;;95.50;91.30;;;;;;;;;;5076127;28;20175;-70
2021/05/23 16:02:13;;;;;;;89.60;85.75;;;;;;;;;;5074692;28;20533;-71
2021/05/23 16:04:38;;;;;;;86.85;83.10;;;;;;;;;;5075890;28;20618;-71
2021/05/23 16:07:04;;;;;;;88.38;84.40;;;;;;;;;;5075754;28;20188;-71
2021/05/23 16:09:30;;;;;;;90.40;86.47;;;;;;;;;;5074329;28;20735;-71
2021/05/23 16:23:51;;;;;;;59.63;56.63;;;;;;;;;;5090981;28;20549;-71
2021/05/23 16:26:18;;;;;;;63.13;60.45;;;;;;;;;;5090837;28;20479;-72
2021/05/23 16:28:45;;;;;;;77.78;74.38;;;;;;;;;;5089680;28;20168;-72
2021/05/23 16:31:12;;;;;;;80.43;76.97;;;;;;;;;;5089556;28;20172;-71
2021/05/23 16:33:39;;;;;;;87.70;83.90;;;;;;;;;;5090185;28;20271;-72
2021/05/23 16:36:05;;;;;;;84.68;81.03;;;;;;;;;;5090695;28;20194;-72
2021/05/23 16:38:33;;;;;;;94.50;90.38;;;;;;;;;;5090683;28;20190;-72
2021/05/23 16:40:59;;;;;;;82.38;78.82;;;;;;;;;;5090602;28;20194;-72
2021/05/23 16:43:25;;;;;;;90.60;86.65;;;;;;;;;;5090475;28;20211;-72
2021/05/23 16:45:51;;;;;;;94.95;90.78;;;;;;;;;;5090518;28;20183;-72
2021/05/23 16:48:17;;;;;;;94.82;90.72;;;;;;;;;;5090496;28;20168;-72
2021/05/23 17:17:14;;;;;;;107.03;102.32;;;;;;;;;;5090902;28;21115;-71
2021/05/23 17:19:40;;;;;;;102.38;97.90;;;;;;;;;;5090916;28;20172;-72
2021/05/23 17:22:07;;;;;;;96.80;92.53;;;;;;;;;;5090854;28;20163;-71
2021/05/23 17:24:33;;;;;;;102.30;97.65;;;;;;;;;;5090714;28;20175;-71
2021/05/23 17:26:59;;;;;;;100.82;96.43;;;;;;;;;;5089497;28;20175;-72
2021/05/23 17:29:25;;;;;;;103.35;97.85;;;;;;;;;;5090661;28;20175;-72
